ホバート の空港の天気 - METARとTAF

ホバート国際空港 ( YMHB / HBA ) - オーストラリア タスマニア州、Cambridge
飛行場実況気象(Metar)
観測時間10/22 23:30 AEDT (10/22 12:30 UTC)
風向・風速北東 3m/s
視程10km以上
天気現象
少しの雲 雲底高度 370m
全天を覆う雲 雲底高度 580m
気温13℃
湿度77%
気圧1014hPa
METARYMHB 221230Z 04005KT 9999 FEW012 OVC019 13/09 Q1014 RF00.0/000.0
過去の天気等 Google飛行場航空写真 Wunderground天気予報

過去48時間のMETAR

飛行場予報(TAF)
発表時間: 10/22 21:41 AEDT (10/22 10:41 UTC)
予報対象時間: 22日21時 AEDT ~ 23日23時 AEDT
風向・風速北東 4m/s
視程10km以上
全天の8割程度の雲 雲底高度 670m
22日23時 AEDT から
風向・風速北東 3m/s
視程10km以上
全天の4割程度の雲 雲底高度 460m
全天の8割程度の雲 雲底高度 610m
23日1時 AEDT ~ 23日3時 AEDT に徐々に
風向・風速北北西 3m/s
視程10km以上
なし
23日13時 AEDT から
風向・風速南東 4m/s
視程10km以上
なし
23日19時 AEDT ~ 23日21時 AEDT に徐々に
風向・風速南 3m/s
視程10km以上
全天の8割程度の雲 雲底高度 610m
TAF AMD YMHB 221041Z 2210/2312 05007KT 9999 BKN022
FM221200 04006KT 9999 SCT015 BKN020
BECMG 2214/2216 34005KT CAVOK
FM230200 14008KT CAVOK
BECMG 2308/2310 18005KT 9999 BKN020 INTER 2211/2215 6000 -SHRA BKN015